createdAt,value
2022-11-15T00:00:44.762Z,4.75
2022-11-15T00:03:11.237Z,4.43
2022-11-15T00:05:37.755Z,4.30
2022-11-15T00:08:04.329Z,4.72
2022-11-15T00:10:30.906Z,5.32
2022-11-15T00:12:59.742Z,3.20
2022-11-15T00:15:26.410Z,4.32
2022-11-15T00:17:52.877Z,3.67
2022-11-15T00:20:19.398Z,3.08
2022-11-15T00:22:51.915Z,5.30
2022-11-15T00:25:18.434Z,4.25
2022-11-15T00:27:45.040Z,4.40
2022-11-15T00:30:12.155Z,4.53
2022-11-15T00:32:38.665Z,5.72
2022-11-15T00:35:05.561Z,5.10
2022-11-15T00:37:32.096Z,3.78
2022-11-15T00:39:58.554Z,3.40
2022-11-15T00:42:25.134Z,4.38
2022-11-15T00:44:52.122Z,4.30
2022-11-15T00:47:18.659Z,4.93
2022-11-15T00:49:45.111Z,4.68
2022-11-15T00:52:11.572Z,5.15
2022-11-15T00:54:38.103Z,6.15
2022-11-15T00:57:04.796Z,6.07
2022-11-15T00:59:31.299Z,7.65
2022-11-15T01:01:57.782Z,4.80
2022-11-15T01:04:24.265Z,5.28
2022-11-15T01:06:50.790Z,4.88
2022-11-15T01:09:17.263Z,4.22
2022-11-15T01:11:43.949Z,4.60
2022-11-15T01:14:10.465Z,4.78
2022-11-15T01:16:36.995Z,7.22
2022-11-15T01:19:03.898Z,4.25
2022-11-15T01:21:30.352Z,4.00
2022-11-15T01:23:59.311Z,4.68
2022-11-15T01:26:26.195Z,4.72
2022-11-15T01:28:52.646Z,4.45
2022-11-15T01:31:21.044Z,4.75
2022-11-15T01:33:48.218Z,4.22
2022-11-15T01:36:20.353Z,5.15
2022-11-15T01:38:46.822Z,6.75
2022-11-15T01:41:18.331Z,5.03
2022-11-15T01:43:44.983Z,4.68
2022-11-15T01:46:36.153Z,3.88
2022-11-15T01:49:06.604Z,5.30
2022-11-15T01:51:34.250Z,4.40
2022-11-15T01:54:05.012Z,5.13
2022-11-15T01:56:33.614Z,4.03
2022-11-15T01:59:04.143Z,4.13
2022-11-15T02:01:32.665Z,4.03
2022-11-15T02:04:02.012Z,5.18
2022-11-15T02:06:28.501Z,4.00
2022-11-15T02:08:55.330Z,5.78
2022-11-15T02:11:21.789Z,4.72
2022-11-15T02:13:48.373Z,6.18
2022-11-15T02:16:52.060Z,4.65
2022-11-15T02:19:47.900Z,4.05
2022-11-15T02:22:45.712Z,4.82
2022-11-15T02:25:57.175Z,3.60
2022-11-15T02:28:48.455Z,3.00
2022-11-15T02:31:35.799Z,4.20
2022-11-15T02:34:20.447Z,2.70
2022-11-15T02:37:08.825Z,2.13
2022-11-15T02:39:41.589Z,2.95
2022-11-15T02:42:18.842Z,1.60
2022-11-15T02:44:46.803Z,4.22
2022-11-15T02:47:15.328Z,2.13
2022-11-15T02:49:47.749Z,4.07
2022-11-15T02:52:20.762Z,4.90
2022-11-15T02:54:58.371Z,1.70
2022-11-15T02:57:46.689Z,1.60
2022-11-15T03:00:18.544Z,1.40
2022-11-15T03:02:51.041Z,1.52
2022-11-15T03:05:41.589Z,2.08
2022-11-15T03:08:12.057Z,1.35
2022-11-15T03:10:56.815Z,1.27
2022-11-15T03:14:02.261Z,2.25
2022-11-15T03:16:56.516Z,1.67
2022-11-15T03:19:44.530Z,1.48
2022-11-15T03:22:13.639Z,1.60
2022-11-15T03:24:40.369Z,1.55
2022-11-15T03:27:07.896Z,2.45
2022-11-15T03:29:37.255Z,4.32
2022-11-15T03:32:11.766Z,2.35
2022-11-15T03:34:46.675Z,2.50
2022-11-15T03:37:16.978Z,1.50
2022-11-15T03:42:29.248Z,1.42
2022-11-15T03:45:00.716Z,2.08
2022-11-15T03:47:37.725Z,1.48
2022-11-15T03:50:09.394Z,1.40
2022-11-15T03:52:36.326Z,1.65
2022-11-15T03:55:05.073Z,1.27
2022-11-15T03:57:31.629Z,1.98
2022-11-15T03:59:58.112Z,1.85
2022-11-15T04:02:24.600Z,1.30
2022-11-15T04:04:51.095Z,2.30
2022-11-15T04:07:17.737Z,1.65
2022-11-15T04:09:44.550Z,3.17
2022-11-15T04:12:10.974Z,1.33
2022-11-15T04:14:45.637Z,1.98
2022-11-15T04:17:12.123Z,1.45
2022-11-15T04:19:38.616Z,1.92
2022-11-15T04:22:05.062Z,2.47
2022-11-15T04:24:31.527Z,1.63
2022-11-15T04:26:58.344Z,2.10
2022-11-15T04:29:24.927Z,1.85
2022-11-15T04:31:51.401Z,1.60
2022-11-15T04:34:17.841Z,1.60
2022-11-15T04:36:44.388Z,1.50
2022-11-15T04:39:10.929Z,2.70
2022-11-15T04:41:37.415Z,2.45
2022-11-15T04:44:03.879Z,1.80
2022-11-15T04:46:30.953Z,1.65
2022-11-15T04:48:59.189Z,2.50
2022-11-15T04:51:26.406Z,2.33
2022-11-15T04:53:53.010Z,1.40
2022-11-15T04:56:19.722Z,2.25
2022-11-15T04:58:46.574Z,2.63
2022-11-15T05:01:14.639Z,4.47
2022-11-15T05:03:44.823Z,2.53
2022-11-15T05:06:11.337Z,1.90
2022-11-15T05:08:38.073Z,2.40
2022-11-15T05:11:04.632Z,2.03
2022-11-15T05:13:31.999Z,2.10
2022-11-15T05:15:58.735Z,3.25
2022-11-15T05:18:26.279Z,13.27
2022-11-15T05:20:52.766Z,1.90
2022-11-15T05:23:19.279Z,3.08
2022-11-15T05:25:45.821Z,2.00
2022-11-15T05:28:12.284Z,2.30
2022-11-15T05:30:38.743Z,1.98
2022-11-15T05:33:05.590Z,3.35
2022-11-15T05:35:41.370Z,2.00
2022-11-15T05:38:08.623Z,5.20
2022-11-15T05:40:35.530Z,2.00
2022-11-15T05:43:02.853Z,3.67
2022-11-15T05:45:30.080Z,3.60
2022-11-15T05:47:57.902Z,3.80
2022-11-15T05:50:24.922Z,2.97
2022-11-15T05:52:51.733Z,2.50
2022-11-15T05:55:18.509Z,2.45
2022-11-15T05:57:45.838Z,2.42
2022-11-15T06:00:13.317Z,4.18
2022-11-15T06:02:39.927Z,5.72
2022-11-15T06:05:06.701Z,2.53
2022-11-15T06:07:33.290Z,2.53
2022-11-15T06:09:59.800Z,2.67
2022-11-15T06:12:26.450Z,4.00
2022-11-15T06:14:52.945Z,2.88
2022-11-15T06:17:19.385Z,2.55
2022-11-15T06:19:45.851Z,4.65
2022-11-15T06:22:12.448Z,3.88
2022-11-15T06:24:38.978Z,3.50
2022-11-15T06:27:05.448Z,2.25
2022-11-15T06:29:32.128Z,2.72
2022-11-15T06:31:58.609Z,2.30
2022-11-15T06:34:25.117Z,3.05
2022-11-15T06:36:51.596Z,3.72
2022-11-15T06:39:18.300Z,3.63
2022-11-15T06:41:44.765Z,2.97
2022-11-15T06:44:11.232Z,3.10
2022-11-15T06:46:37.767Z,3.55
2022-11-15T06:49:09.410Z,3.50
2022-11-15T06:51:36.442Z,3.85
2022-11-15T06:54:03.204Z,4.35
2022-11-15T06:56:29.715Z,3.95
2022-11-15T06:58:56.439Z,4.68
2022-11-15T07:01:23.258Z,3.90
2022-11-15T07:03:49.912Z,4.88
2022-11-15T07:06:16.599Z,4.78
2022-11-15T07:08:43.079Z,3.78
2022-11-15T07:11:10.040Z,5.82
2022-11-15T07:13:37.262Z,5.45
2022-11-15T07:16:08.856Z,4.72
2022-11-15T07:18:36.308Z,3.90
2022-11-15T07:21:07.499Z,4.85
2022-11-15T07:23:34.914Z,3.97
2022-11-15T07:26:01.733Z,5.20
2022-11-15T07:28:28.723Z,5.07
2022-11-15T07:30:55.906Z,5.93
2022-11-15T07:33:22.816Z,4.15
2022-11-15T07:35:49.368Z,6.05
2022-11-15T07:38:16.548Z,4.15
2022-11-15T07:40:43.003Z,4.03
2022-11-15T07:43:09.532Z,5.60
2022-11-15T07:45:44.420Z,4.72
2022-11-15T07:48:11.002Z,3.92
2022-11-15T07:50:37.862Z,4.82
2022-11-15T07:53:04.345Z,6.07
2022-11-15T07:55:30.811Z,5.05
2022-11-15T07:58:04.678Z,5.13
2022-11-15T08:00:31.376Z,6.70
2022-11-15T08:03:11.941Z,7.75
2022-11-15T08:05:40.020Z,4.60
2022-11-15T08:08:08.001Z,3.65
2022-11-15T08:10:40.241Z,3.55
2022-11-15T08:13:10.495Z,4.93
2022-11-15T08:15:37.753Z,3.95
2022-11-15T08:18:07.544Z,4.07
2022-11-15T08:20:34.055Z,3.22
2022-11-15T08:23:01.833Z,2.38
2022-11-15T08:25:30.155Z,2.92
2022-11-15T08:27:59.004Z,1.92
2022-11-15T08:30:25.860Z,1.20
2022-11-15T08:32:53.387Z,2.05
2022-11-15T08:35:23.725Z,3.15
2022-11-15T08:37:54.604Z,1.80
2022-11-15T08:40:21.373Z,1.63
2022-11-15T08:42:48.306Z,1.70
2022-11-15T08:45:15.026Z,1.27
2022-11-15T08:47:41.577Z,1.65
2022-11-15T08:50:08.782Z,2.75
2022-11-15T08:52:35.329Z,5.68
2022-11-15T08:55:02.269Z,5.22
2022-11-15T08:57:31.955Z,3.38
2022-11-15T08:59:58.461Z,3.72
2022-11-15T09:02:25.179Z,1.58
2022-11-15T09:04:51.667Z,2.17
2022-11-15T09:07:18.717Z,2.95
2022-11-15T09:09:45.435Z,4.22
2022-11-15T09:12:11.987Z,3.80
2022-11-15T09:14:40.487Z,3.75
2022-11-15T09:17:10.247Z,2.10
2022-11-15T09:19:36.771Z,4.22
2022-11-15T09:22:06.647Z,3.25
2022-11-15T09:24:33.653Z,2.33
2022-11-15T09:27:00.138Z,2.95
2022-11-15T09:29:26.694Z,2.17
2022-11-15T09:31:54.135Z,2.00
2022-11-15T09:34:23.648Z,3.38
2022-11-15T09:36:50.177Z,3.42
2022-11-15T09:39:16.676Z,2.55
2022-11-15T09:41:57.369Z,3.22
2022-11-15T09:44:39.961Z,1.33
2022-11-15T09:47:19.129Z,3.43
2022-11-15T09:49:45.807Z,2.20
2022-11-15T09:52:12.629Z,2.20
2022-11-15T09:54:56.492Z,4.23
2022-11-15T09:58:00.267Z,2.17
2022-11-15T10:00:48.876Z,1.27
2022-11-15T10:03:35.403Z,3.43
2022-11-15T10:06:04.176Z,2.27
2022-11-15T10:08:55.571Z,1.70
2022-11-15T10:11:40.336Z,2.50
2022-11-15T10:14:13.345Z,2.83
2022-11-15T10:17:10.845Z,1.43
2022-11-15T10:20:06.368Z,8.33
2022-11-15T10:22:42.363Z,3.30
2022-11-15T10:25:18.533Z,3.40
2022-11-15T10:27:51.696Z,3.23
2022-11-15T10:30:19.468Z,2.80
2022-11-15T10:32:47.705Z,6.03
2022-11-15T10:35:29.261Z,7.20
2022-11-15T10:38:12.459Z,5.60
2022-11-15T10:40:40.610Z,5.82
2022-11-15T10:43:16.587Z,5.75
2022-11-15T10:45:43.823Z,6.03
2022-11-15T10:48:13.302Z,5.15
2022-11-15T10:50:47.034Z,7.05
2022-11-15T10:53:18.681Z,4.10
2022-11-15T10:55:48.516Z,2.60
2022-11-15T10:58:28.654Z,5.97
2022-11-15T11:03:29.543Z,3.57
2022-11-15T11:06:06.835Z,2.13
2022-11-15T11:08:33.554Z,4.23
2022-11-15T11:11:03.566Z,5.73
2022-11-15T11:13:41.119Z,2.97
2022-11-15T11:16:23.065Z,2.63
2022-11-15T11:19:24.154Z,3.00
2022-11-15T11:21:59.393Z,2.53
2022-11-15T11:24:34.841Z,2.83
2022-11-15T11:27:15.763Z,2.13
2022-11-15T11:30:04.088Z,1.47
2022-11-15T11:32:39.313Z,3.30
2022-11-15T11:35:14.641Z,2.33
2022-11-15T11:37:53.257Z,3.97
2022-11-15T11:40:28.984Z,2.67
2022-11-15T11:42:57.201Z,1.83
2022-11-15T11:46:03.291Z,3.70
2022-11-15T11:48:48.557Z,2.90
2022-11-15T11:51:36.642Z,2.70
2022-11-15T11:54:18.313Z,3.00
2022-11-15T11:56:45.958Z,5.07
2022-11-15T11:59:32.150Z,2.73
2022-11-15T12:02:02.576Z,6.87
2022-11-15T12:04:37.765Z,5.80
2022-11-15T12:07:16.432Z,4.77
2022-11-15T12:09:52.225Z,3.37
2022-11-15T12:12:42.451Z,3.07
2022-11-15T12:15:23.320Z,2.00
2022-11-15T12:17:49.825Z,1.77
2022-11-15T12:20:19.464Z,3.70
2022-11-15T12:22:56.502Z,3.08
2022-11-15T12:25:44.648Z,1.93
2022-11-15T12:28:34.978Z,5.20
2022-11-15T12:31:11.870Z,2.93
2022-11-15T12:33:42.025Z,3.27
2022-11-15T12:38:57.836Z,4.20
2022-11-15T12:41:27.117Z,4.40
2022-11-15T12:43:54.318Z,5.78
2022-11-15T12:46:30.094Z,3.60
2022-11-15T12:49:28.726Z,3.83
2022-11-15T12:51:58.251Z,3.77
2022-11-15T12:54:25.055Z,3.28
2022-11-15T12:57:03.899Z,9.13
2022-11-15T12:59:55.021Z,7.55
2022-11-15T13:04:48.590Z,9.37
2022-11-15T13:07:36.549Z,6.53
2022-11-15T13:10:15.100Z,8.93
2022-11-15T13:12:47.633Z,8.03
2022-11-15T13:15:14.280Z,6.60
2022-11-15T13:17:44.575Z,6.97
2022-11-15T13:20:14.133Z,6.73
2022-11-15T13:23:03.614Z,10.60
2022-11-15T13:25:51.320Z,9.52
2022-11-15T13:28:17.745Z,10.47
2022-11-15T13:30:52.989Z,9.87
2022-11-15T13:33:36.250Z,9.77
2022-11-15T13:36:26.699Z,10.37
2022-11-15T13:41:32.458Z,12.20
2022-11-15T13:44:00.291Z,8.40
2022-11-15T13:46:31.938Z,11.93
2022-11-15T13:49:08.362Z,11.57
2022-11-15T13:51:36.627Z,10.40
2022-11-15T13:54:28.369Z,8.33
2022-11-15T13:56:58.125Z,11.23
2022-11-15T13:59:30.289Z,8.27
2022-11-15T14:02:00.288Z,10.27
2022-11-15T14:04:27.959Z,10.13
2022-11-15T14:06:58.020Z,14.73
2022-11-15T14:12:01.139Z,15.80
2022-11-15T14:14:29.321Z,13.30
2022-11-15T14:16:57.753Z,11.57
2022-11-15T14:19:24.191Z,15.17
2022-11-15T14:22:09.463Z,21.90
2022-11-15T14:24:37.023Z,16.53
2022-11-15T14:27:19.715Z,10.43
2022-11-15T14:29:46.334Z,14.60
2022-11-15T14:32:21.093Z,10.50
2022-11-15T14:34:48.937Z,12.90
2022-11-15T14:37:27.227Z,9.10
2022-11-15T14:39:54.271Z,11.27
2022-11-15T14:42:22.018Z,11.67
2022-11-15T14:44:48.652Z,12.30
2022-11-15T14:47:15.128Z,11.87
2022-11-15T14:49:41.852Z,9.40
2022-11-15T14:52:20.862Z,8.33
2022-11-15T14:54:47.357Z,10.33
2022-11-15T14:57:14.048Z,10.20
2022-11-15T14:59:40.574Z,15.63
2022-11-15T15:02:24.503Z,12.70
2022-11-15T15:04:51.473Z,9.10
2022-11-15T15:07:18.504Z,11.13
2022-11-15T15:09:45.762Z,9.67
2022-11-15T15:12:20.480Z,11.32
2022-11-15T15:14:48.077Z,12.50
2022-11-15T15:17:14.995Z,10.03
2022-11-15T15:19:41.788Z,11.03
2022-11-15T15:22:18.276Z,14.50
2022-11-15T15:24:45.662Z,8.57
2022-11-15T15:27:12.956Z,9.50
2022-11-15T15:29:39.798Z,10.67
2022-11-15T15:32:06.660Z,10.10
2022-11-15T15:34:35.881Z,9.57
2022-11-15T15:37:10.294Z,9.98
2022-11-15T15:39:36.789Z,9.95
2022-11-15T15:42:03.328Z,10.82
2022-11-15T15:44:29.789Z,9.40
2022-11-15T15:46:56.326Z,11.15
2022-11-15T15:49:22.810Z,10.05
2022-11-15T15:51:49.627Z,14.65
2022-11-15T15:54:16.139Z,13.25
2022-11-15T15:56:43.365Z,9.10
2022-11-15T15:59:12.309Z,11.55
2022-11-15T16:01:38.832Z,8.95
2022-11-15T16:04:06.689Z,10.10
2022-11-15T16:06:38.562Z,8.38
2022-11-15T16:09:14.619Z,10.95
2022-11-15T16:11:44.573Z,11.68
2022-11-15T16:14:11.285Z,11.32
2022-11-15T16:16:38.078Z,12.60
2022-11-15T16:19:05.595Z,9.35
2022-11-15T16:21:32.181Z,10.10
2022-11-15T16:23:58.678Z,11.52
2022-11-15T16:26:27.296Z,12.00
2022-11-15T16:28:54.198Z,12.18
2022-11-15T16:31:20.713Z,11.52
2022-11-15T16:33:47.202Z,13.38
2022-11-15T16:36:24.500Z,11.95
2022-11-15T16:38:54.029Z,11.65
2022-11-15T16:41:21.354Z,13.98
2022-11-15T16:43:54.061Z,11.57
2022-11-15T16:46:23.763Z,15.05
2022-11-15T16:48:50.472Z,16.90
2022-11-15T16:51:17.578Z,12.02
2022-11-15T16:53:44.440Z,14.43
2022-11-15T16:56:30.536Z,15.70
2022-11-15T16:58:58.190Z,14.07
2022-11-15T17:01:26.528Z,12.57
2022-11-15T17:03:53.185Z,11.50
2022-11-15T17:06:19.929Z,16.40
2022-11-15T17:08:46.882Z,11.88
2022-11-15T17:11:21.448Z,11.90
2022-11-15T17:13:48.293Z,14.15
2022-11-15T17:16:16.634Z,14.25
2022-11-15T17:18:44.135Z,11.00
2022-11-15T17:21:14.190Z,11.57
2022-11-15T17:23:40.811Z,25.83
2022-11-15T17:26:28.353Z,26.23
2022-11-15T17:28:55.983Z,19.13
2022-11-15T17:31:22.639Z,11.57
2022-11-15T17:33:49.275Z,13.20
2022-11-15T17:36:15.801Z,10.90
2022-11-15T17:38:42.370Z,13.15
2022-11-15T17:41:15.729Z,14.48
2022-11-15T17:43:44.917Z,9.52
2022-11-15T17:46:19.302Z,9.38
2022-11-15T17:48:46.532Z,11.13
2022-11-15T17:51:15.372Z,9.60
2022-11-15T17:53:43.887Z,10.63
2022-11-15T17:56:20.172Z,10.00
2022-11-15T17:58:58.194Z,11.77
2022-11-15T18:01:31.456Z,10.00
2022-11-15T18:04:02.352Z,13.02
2022-11-15T18:06:30.905Z,12.88
2022-11-15T18:08:57.777Z,10.90
2022-11-15T18:11:27.177Z,11.95
2022-11-15T18:14:02.341Z,17.88
2022-11-15T18:16:31.093Z,13.35
2022-11-15T18:18:58.541Z,12.20
2022-11-15T18:21:30.885Z,8.55
2022-11-15T18:23:59.396Z,12.85
2022-11-15T18:26:27.580Z,11.98
2022-11-15T18:29:03.182Z,12.35
2022-11-15T18:31:30.822Z,10.93
2022-11-15T18:33:59.561Z,11.80
2022-11-15T18:36:28.226Z,8.35
2022-11-15T18:39:01.406Z,11.30
2022-11-15T18:41:28.218Z,14.48
2022-11-15T18:43:56.033Z,9.88
2022-11-15T18:46:24.208Z,10.25
2022-11-15T18:48:51.738Z,12.18
2022-11-15T18:51:21.479Z,12.60
2022-11-15T18:53:48.286Z,10.77
2022-11-15T18:56:18.497Z,12.40
2022-11-15T18:58:47.449Z,11.05
2022-11-15T19:01:16.509Z,13.32
2022-11-15T19:03:44.994Z,11.95
2022-11-15T19:06:13.391Z,11.23
2022-11-15T19:08:43.995Z,10.32
2022-11-15T19:11:14.481Z,12.75
2022-11-15T19:13:41.821Z,11.52
2022-11-15T19:16:11.894Z,13.50
2022-11-15T19:18:39.134Z,11.10
2022-11-15T19:21:10.184Z,12.05
2022-11-15T19:23:41.174Z,12.15
2022-11-15T19:26:11.274Z,13.70
2022-11-15T19:28:37.903Z,11.60
2022-11-15T19:31:23.411Z,10.07
2022-11-15T19:33:50.573Z,11.02
2022-11-15T19:36:19.682Z,13.90
2022-11-15T19:38:46.466Z,12.65
2022-11-15T19:41:17.864Z,12.77
2022-11-15T19:43:44.787Z,12.00
2022-11-15T19:46:12.421Z,14.63
2022-11-15T19:48:39.054Z,12.27
2022-11-15T19:51:07.843Z,11.43
2022-11-15T19:53:35.103Z,13.80
2022-11-15T19:56:06.980Z,15.25
2022-11-15T19:58:34.031Z,11.90
2022-11-15T20:01:02.415Z,11.93
2022-11-15T20:03:33.478Z,10.43
2022-11-15T20:06:04.257Z,13.45
2022-11-15T20:08:31.458Z,13.07
2022-11-15T20:10:58.858Z,16.33
2022-11-15T20:13:25.647Z,17.50
2022-11-15T20:15:52.677Z,12.77
2022-11-15T20:18:21.203Z,12.38
2022-11-15T20:20:48.893Z,16.30
2022-11-15T20:23:16.064Z,11.77
2022-11-15T20:25:46.879Z,14.00
2022-11-15T20:28:20.947Z,10.52
2022-11-15T20:30:49.380Z,11.43
2022-11-15T20:33:18.001Z,10.25
2022-11-15T20:35:44.535Z,9.90
2022-11-15T20:38:11.909Z,9.20
2022-11-15T20:40:39.339Z,12.27
2022-11-15T20:43:06.769Z,12.02
2022-11-15T20:45:33.304Z,10.38
2022-11-15T20:47:59.769Z,12.00
2022-11-15T20:50:42.113Z,10.80
2022-11-15T20:53:12.989Z,11.35
2022-11-15T20:55:44.670Z,10.73
2022-11-15T20:58:13.727Z,8.98
2022-11-15T21:00:41.095Z,11.15
2022-11-15T21:03:07.720Z,11.68
2022-11-15T21:05:37.442Z,10.13
2022-11-15T21:08:05.872Z,14.02
2022-11-15T21:10:32.490Z,10.15
2022-11-15T21:12:59.000Z,9.90
2022-11-15T21:15:26.254Z,14.10
2022-11-15T21:17:52.873Z,15.10
2022-11-15T21:20:19.408Z,15.70
2022-11-15T21:22:45.961Z,12.35
2022-11-15T21:25:12.585Z,9.63
2022-11-15T21:27:39.051Z,14.13
2022-11-15T21:30:06.068Z,10.45
2022-11-15T21:32:32.903Z,9.35
2022-11-15T21:34:59.434Z,12.60
2022-11-15T21:37:25.953Z,12.18
2022-11-15T21:39:52.419Z,10.95
2022-11-15T21:42:18.906Z,12.27
2022-11-15T21:44:45.706Z,12.52
2022-11-15T21:47:12.274Z,11.88
2022-11-15T21:49:40.650Z,9.18
2022-11-15T21:52:07.244Z,11.23
2022-11-15T21:54:36.707Z,11.52
2022-11-15T21:57:03.245Z,11.07
2022-11-15T21:59:29.694Z,6.95
2022-11-15T22:01:56.361Z,9.18
2022-11-15T22:04:22.919Z,7.60
2022-11-15T22:06:52.551Z,8.10
2022-11-15T22:09:19.133Z,6.47
2022-11-15T22:11:45.607Z,8.80
2022-11-15T22:14:12.233Z,9.32
2022-11-15T22:16:38.711Z,8.43
2022-11-15T22:19:08.160Z,11.60
2022-11-15T22:21:34.832Z,10.35
2022-11-15T22:24:04.346Z,8.40
2022-11-15T22:26:30.925Z,15.98
2022-11-15T22:28:57.438Z,9.27
2022-11-15T22:31:24.006Z,9.10
2022-11-15T22:33:50.534Z,8.80
2022-11-15T22:36:17.073Z,9.95
2022-11-15T22:38:43.608Z,12.32
2022-11-15T22:41:10.164Z,6.90
2022-11-15T22:43:36.744Z,8.82
2022-11-15T22:46:04.179Z,11.52
2022-11-15T22:48:34.068Z,12.85
2022-11-15T22:51:01.410Z,21.23
2022-11-15T22:53:28.464Z,13.35
2022-11-15T22:55:57.450Z,14.38
2022-11-15T22:58:26.651Z,13.43
2022-11-15T23:00:59.537Z,15.87
2022-11-15T23:03:27.674Z,20.05
2022-11-15T23:05:54.646Z,19.75
2022-11-15T23:08:23.303Z,14.48
2022-11-15T23:10:49.876Z,14.43
2022-11-15T23:13:16.728Z,12.90
2022-11-15T23:15:48.018Z,15.40
2022-11-15T23:18:14.552Z,12.55
2022-11-15T23:20:43.700Z,11.45
2022-11-15T23:23:11.560Z,18.27
2022-11-15T23:25:38.096Z,14.25
2022-11-15T23:28:05.493Z,15.82
2022-11-15T23:30:34.852Z,13.98
2022-11-15T23:33:01.420Z,20.38
2022-11-15T23:35:27.954Z,16.80
2022-11-15T23:37:54.547Z,14.55
2022-11-15T23:40:21.106Z,13.60
2022-11-15T23:42:47.656Z,17.15
2022-11-15T23:45:14.282Z,17.23
2022-11-15T23:47:40.767Z,20.73
2022-11-15T23:50:08.713Z,13.63
2022-11-15T23:52:35.574Z,23.85
2022-11-15T23:55:02.065Z,24.83
2022-11-15T23:57:28.564Z,16.83
2022-11-15T23:59:55.054Z,34.95
